Time;durP1;ratioP1;P1;durP2;ratioP2;P2;SDS_P1;SDS_P2;PMS_P1;PMS_P2;Temp;Humidity;BMP_temperature;BMP_pressure;BME280_temperature;BME280_humidity;BME280_pressure;Samples;Min_cycle;Max_cycle;Signal;HPM_P1;HPM_P2
2023/02/08 00:01:49;;;;;;;26.50;10.70;;;-2.10;78.60;;;;;;5020711;28;20217;-76
2023/02/08 00:04:15;;;;;;;22.60;10.30;;;-2.10;78.60;;;;;;5014890;28;20193;-76
2023/02/08 00:06:40;;;;;;;20.37;9.70;;;-2.20;78.60;;;;;;5021374;28;20193;-75
2023/02/08 00:09:07;;;;;;;24.70;11.27;;;-2.20;78.60;;;;;;5016877;28;20196;-74
2023/02/08 00:11:33;;;;;;;22.45;10.50;;;-2.20;78.60;;;;;;5014416;28;20576;-75
2023/02/08 00:13:58;;;;;;;23.57;10.13;;;-2.20;78.60;;;;;;5022411;28;20235;-74
2023/02/08 00:16:24;;;;;;;19.67;9.43;;;-2.20;78.60;;;;;;5019766;28;20212;-76
2023/02/08 00:18:50;;;;;;;20.80;10.50;;;-2.20;78.60;;;;;;5020740;28;20174;-76
2023/02/08 00:21:17;;;;;;;19.87;9.47;;;-2.30;78.40;;;;;;5014602;28;20186;-76
2023/02/08 00:23:43;;;;;;;22.17;10.50;;;-2.30;78.40;;;;;;5013346;28;20257;-76
2023/02/08 00:26:09;;;;;;;21.13;9.85;;;-2.30;78.40;;;;;;5020105;28;20604;-76
2023/02/08 00:28:35;;;;;;;21.52;9.48;;;-2.30;78.40;;;;;;5013082;28;20248;-75
2023/02/08 00:31:01;;;;;;;23.98;10.38;;;-2.30;78.40;;;;;;5019191;28;20220;-77
2023/02/08 00:33:27;;;;;;;19.52;8.88;;;-2.40;78.30;;;;;;5015195;28;20213;-76
2023/02/08 00:36:06;;;;;;;21.40;9.33;;;-2.40;78.40;;;;;;5018784;28;20181;-75
2023/02/08 00:38:32;;;;;;;18.55;9.15;;;-2.40;78.30;;;;;;5025588;28;20189;-75
2023/02/08 00:40:58;;;;;;;19.38;9.43;;;-2.40;78.30;;;;;;5025758;28;20185;-75
2023/02/08 00:43:23;;;;;;;19.23;9.27;;;-2.40;78.30;;;;;;5024661;28;20237;-75
2023/02/08 00:45:56;;;;;;;19.73;9.93;;;-2.40;78.30;;;;;;5033691;28;20649;-76
2023/02/08 00:48:22;;;;;;;19.05;9.32;;;-2.40;78.10;;;;;;5030886;28;20216;-75
2023/02/08 00:51:00;;;;;;;15.90;8.80;;;-2.50;78.10;;;;;;5020503;28;20206;-76
2023/02/08 00:53:25;;;;;;;19.65;9.20;;;-2.50;78.10;;;;;;5019163;28;20229;-76
2023/02/08 00:55:52;;;;;;;16.83;8.40;;;-2.50;78.10;;;;;;5019795;28;20189;-76
2023/02/08 00:58:18;;;;;;;19.02;9.48;;;-2.60;78.10;;;;;;5011439;28;20217;-74
2023/02/08 01:00:44;;;;;;;18.27;9.20;;;-2.60;78.00;;;;;;5020928;28;20220;-75
2023/02/08 01:03:09;;;;;;;18.27;9.40;;;-2.60;78.00;;;;;;5014017;28;20205;-76
2023/02/08 01:05:37;;;;;;;16.57;8.60;;;-2.60;77.80;;;;;;5016576;28;21009;-75
2023/02/08 01:08:03;;;;;;;20.17;9.45;;;-2.60;77.80;;;;;;5011341;28;20281;-75
2023/02/08 01:10:28;;;;;;;18.00;8.43;;;-2.60;77.80;;;;;;5011483;28;20294;-75
2023/02/08 01:12:54;;;;;;;19.83;9.13;;;-2.70;77.80;;;;;;5008769;28;20743;-76
2023/02/08 01:15:19;;;;;;;22.03;8.63;;;-2.60;77.80;;;;;;5020252;28;20181;-75
2023/02/08 01:17:45;;;;;;;18.57;9.33;;;-2.60;77.80;;;;;;5021158;28;20185;-76
2023/02/08 01:20:10;;;;;;;21.63;8.40;;;-2.60;77.70;;;;;;5016445;28;20193;-75
2023/02/08 01:22:36;;;;;;;15.87;8.87;;;-2.70;77.70;;;;;;5009576;28;20389;-75
2023/02/08 01:25:03;;;;;;;17.40;8.50;;;-2.70;77.70;;;;;;5025147;28;20680;-75
2023/02/08 01:27:28;;;;;;;16.45;9.13;;;-2.80;77.60;;;;;;5016388;28;20192;-75
2023/02/08 01:29:54;;;;;;;14.20;7.90;;;-2.70;77.70;;;;;;5025808;28;20185;-75
2023/02/08 01:32:19;;;;;;;17.80;7.93;;;-2.80;77.70;;;;;;5015842;28;20600;-75
2023/02/08 01:34:45;;;;;;;16.83;8.90;;;-2.80;77.70;;;;;;5018620;28;20181;-75
2023/02/08 01:37:10;;;;;;;17.77;8.37;;;-2.80;77.80;;;;;;5018791;28;20256;-75
2023/02/08 01:39:36;;;;;;;17.63;9.50;;;-2.90;77.70;;;;;;5015376;28;20197;-75
2023/02/08 01:42:02;;;;;;;16.03;7.23;;;-2.90;78.00;;;;;;5012228;28;20202;-75
2023/02/08 01:45:05;;;;;;;16.50;8.47;;;-2.90;77.80;;;;;;5015753;28;20247;-75
2023/02/08 01:47:31;;;;;;;16.92;8.43;;;-2.80;78.10;;;;;;5015113;28;20189;-75
2023/02/08 01:49:56;;;;;;;14.87;7.80;;;-2.80;77.80;;;;;;5015559;28;20186;-75
2023/02/08 01:52:27;;;;;;;19.27;9.03;;;-2.80;77.70;;;;;;5012803;28;20273;-75
2023/02/08 01:55:03;;;;;;;17.30;7.72;;;-2.90;77.60;;;;;;5014946;28;20178;-75
2023/02/08 01:57:29;;;;;;;15.52;8.52;;;-2.80;77.70;;;;;;5015890;28;20181;-75
2023/02/08 02:00:06;;;;;;;13.63;8.27;;;-2.90;77.40;;;;;;5013075;28;20577;-76
2023/02/08 02:02:34;;;;;;;14.35;7.50;;;-2.90;77.10;;;;;;5002110;28;20747;-75
2023/02/08 02:05:00;;;;;;;20.88;8.70;;;-2.90;77.10;;;;;;5020080;28;20627;-76
2023/02/08 02:07:28;;;;;;;18.80;8.20;;;-2.90;77.40;;;;;;5019524;28;20217;-77
2023/02/08 02:10:15;;;;;;;20.45;9.23;;;-2.90;77.40;;;;;;5021361;28;20482;-75
2023/02/08 02:12:41;;;;;;;16.38;8.73;;;-2.90;77.70;;;;;;5009666;28;20646;-76
2023/02/08 02:15:08;;;;;;;13.65;8.23;;;-3.00;77.80;;;;;;5018424;28;20209;-75
2023/02/08 02:17:36;;;;;;;18.67;9.48;;;-3.00;78.00;;;;;;5016833;28;20174;-74
2023/02/08 02:20:22;;;;;;;16.15;8.80;;;-3.00;78.10;;;;;;5026926;28;20181;-75
2023/02/08 02:23:12;;;;;;;22.73;9.95;;;-3.00;78.30;;;;;;5023277;28;20198;-75
2023/02/08 02:26:15;;;;;;;17.30;9.70;;;-3.00;78.30;;;;;;5021290;28;20298;-76
2023/02/08 02:29:16;;;;;;;20.70;9.27;;;-3.10;78.40;;;;;;5013524;28;20220;-76
2023/02/08 02:32:18;;;;;;;20.40;10.48;;;-3.10;78.60;;;;;;5013694;28;20289;-76
2023/02/08 02:35:01;;;;;;;24.05;11.10;;;-3.20;78.60;;;;;;5016672;28;20182;-75
2023/02/08 02:38:05;;;;;;;23.02;10.40;;;-3.10;78.70;;;;;;5027345;28;20178;-74
2023/02/08 02:40:51;;;;;;;17.90;9.55;;;-3.20;78.70;;;;;;5012491;28;20166;-74
2023/02/08 02:43:45;;;;;;;18.15;10.10;;;-3.10;78.70;;;;;;5026633;28;20748;-73
2023/02/08 02:46:39;;;;;;;21.15;10.10;;;-3.20;78.70;;;;;;5029201;28;20181;-74
2023/02/08 02:49:33;;;;;;;20.80;10.52;;;-3.20;78.70;;;;;;5028341;28;20178;-74
2023/02/08 02:52:10;;;;;;;21.85;10.98;;;-3.20;78.70;;;;;;5035436;28;20225;-75
2023/02/08 02:54:44;;;;;;;20.67;10.45;;;-3.20;78.70;;;;;;5021390;28;20176;-74
2023/02/08 02:57:15;;;;;;;23.13;11.45;;;-3.20;78.70;;;;;;5030098;28;20636;-75
2023/02/08 02:59:41;;;;;;;20.50;9.63;;;-3.20;78.70;;;;;;5026209;28;20530;-74
2023/02/08 03:02:07;;;;;;;18.02;8.90;;;-3.20;78.70;;;;;;5020671;28;20222;-75
2023/02/08 03:04:33;;;;;;;19.63;9.53;;;-3.20;78.60;;;;;;5021804;28;20210;-75
2023/02/08 03:07:13;;;;;;;18.10;9.53;;;-3.20;78.70;;;;;;5028931;28;20424;-75
2023/02/08 03:10:12;;;;;;;24.45;10.38;;;-3.30;78.70;;;;;;5015055;28;20185;-76
2023/02/08 03:12:56;;;;;;;19.92;9.63;;;-3.30;78.90;;;;;;5009744;28;20217;-75
2023/02/08 03:15:54;;;;;;;24.40;10.80;;;-3.30;79.00;;;;;;5021696;28;20182;-76
2023/02/08 03:18:50;;;;;;;24.85;11.23;;;-3.40;78.90;;;;;;5022643;28;20186;-75
2023/02/08 03:21:40;;;;;;;15.90;9.63;;;-3.40;78.90;;;;;;5021899;28;20235;-75
2023/02/08 03:24:12;;;;;;;21.95;9.30;;;-3.40;78.90;;;;;;5017541;28;20217;-75
2023/02/08 03:26:46;;;;;;;18.00;9.20;;;-3.40;79.00;;;;;;5020428;28;20190;-76
2023/02/08 03:29:30;;;;;;;20.50;9.32;;;-3.40;78.90;;;;;;5022197;28;20223;-74
2023/02/08 03:32:10;;;;;;;14.85;8.98;;;-3.40;78.70;;;;;;5011514;28;20278;-74
2023/02/08 03:34:54;;;;;;;16.88;8.60;;;-3.40;78.70;;;;;;5032131;28;20263;-75
2023/02/08 03:37:35;;;;;;;22.42;8.95;;;-3.40;78.40;;;;;;5028753;28;20178;-75
2023/02/08 03:40:09;;;;;;;19.73;10.27;;;-3.40;78.40;;;;;;5018923;28;20205;-75
2023/02/08 03:42:36;;;;;;;19.58;8.70;;;-3.50;78.40;;;;;;5023880;28;20210;-75
2023/02/08 03:45:09;;;;;;;15.90;9.65;;;-3.50;78.40;;;;;;5025954;28;20186;-74
2023/02/08 03:47:38;;;;;;;20.30;9.57;;;-3.40;78.60;;;;;;5023267;28;20181;-76
2023/02/08 03:50:08;;;;;;;17.13;8.48;;;-3.40;78.70;;;;;;5017935;28;20265;-76
2023/02/08 03:52:35;;;;;;;17.25;9.98;;;-3.50;78.40;;;;;;5013848;28;20370;-75
2023/02/08 03:55:09;;;;;;;22.00;10.88;;;-3.50;78.60;;;;;;5015111;28;20202;-75
2023/02/08 03:57:48;;;;;;;22.83;9.65;;;-3.50;78.70;;;;;;5014014;28;20641;-76
2023/02/08 04:00:16;;;;;;;22.23;9.73;;;-3.50;78.70;;;;;;5017643;28;20587;-74
2023/02/08 04:02:57;;;;;;;20.25;9.73;;;-3.50;78.90;;;;;;5015943;28;20217;-75
2023/02/08 04:05:23;;;;;;;20.80;10.20;;;-3.50;78.70;;;;;;5014574;28;20190;-75
2023/02/08 04:07:50;;;;;;;21.53;9.80;;;-3.50;78.60;;;;;;5012703;28;20572;-74
2023/02/08 04:10:16;;;;;;;22.67;9.50;;;-3.50;78.70;;;;;;5015549;28;20419;-74
2023/02/08 04:12:45;;;;;;;17.63;9.90;;;-3.50;78.60;;;;;;5008532;28;20679;-75
2023/02/08 04:15:11;;;;;;;16.20;9.90;;;-3.50;78.60;;;;;;5013307;28;20425;-74
2023/02/08 04:17:36;;;;;;;17.92;11.02;;;-3.50;78.60;;;;;;5012129;28;20186;-76
2023/02/08 04:20:02;;;;;;;24.63;10.97;;;-3.50;78.70;;;;;;5019347;28;20245;-74
2023/02/08 04:22:28;;;;;;;21.90;10.20;;;-3.60;78.90;;;;;;5011088;28;20692;-76
2023/02/08 04:24:53;;;;;;;20.70;10.20;;;-3.50;78.90;;;;;;5024732;28;20220;-74
2023/02/08 04:27:19;;;;;;;26.07;10.63;;;-3.50;79.00;;;;;;5031947;28;20197;-76
2023/02/08 04:29:44;;;;;;;21.43;10.93;;;-3.50;78.90;;;;;;5026096;28;20193;-74
2023/02/08 04:32:12;;;;;;;24.43;11.80;;;-3.50;78.70;;;;;;5010899;28;20225;-76
2023/02/08 04:34:38;;;;;;;24.73;11.23;;;-3.50;78.90;;;;;;5014159;28;20609;-74
2023/02/08 04:37:05;;;;;;;27.05;11.50;;;-3.50;79.00;;;;;;5017751;28;20181;-76
2023/02/08 04:39:31;;;;;;;22.02;11.35;;;-3.60;79.00;;;;;;5018235;28;20206;-75
2023/02/08 04:41:56;;;;;;;18.90;10.73;;;-3.60;79.00;;;;;;5015385;28;20244;-75
2023/02/08 04:44:22;;;;;;;25.30;13.03;;;-3.60;79.00;;;;;;5020545;28;20193;-75
2023/02/08 04:46:47;;;;;;;25.83;11.77;;;-3.60;79.20;;;;;;5013829;28;20189;-75
2023/02/08 04:49:14;;;;;;;25.43;11.80;;;-3.60;79.30;;;;;;5012677;28;20189;-74
2023/02/08 04:51:39;;;;;;;30.33;12.43;;;-3.60;79.30;;;;;;5014283;28;20217;-75
2023/02/08 04:54:05;;;;;;;27.60;11.70;;;-3.60;79.50;;;;;;5014162;28;20189;-74
2023/02/08 04:56:30;;;;;;;24.67;11.90;;;-3.60;79.60;;;;;;5014890;28;20587;-74
2023/02/08 04:58:56;;;;;;;29.40;13.20;;;-3.60;79.60;;;;;;5023150;28;20713;-74
2023/02/08 05:01:22;;;;;;;23.03;12.00;;;-3.70;79.60;;;;;;5015719;28;20807;-74
2023/02/08 05:03:47;;;;;;;25.53;11.60;;;-3.70;80.00;;;;;;5015699;28;20186;-74
2023/02/08 05:06:13;;;;;;;29.33;12.80;;;-3.70;79.90;;;;;;5016654;28;20236;-74
2023/02/08 05:08:39;;;;;;;24.23;12.40;;;-3.70;79.70;;;;;;5016486;28;20178;-75
2023/02/08 05:11:05;;;;;;;29.03;12.20;;;-3.70;80.00;;;;;;5016113;28;20584;-75
2023/02/08 05:13:30;;;;;;;32.60;14.30;;;-3.70;80.00;;;;;;5005354;28;20673;-75
2023/02/08 05:15:56;;;;;;;25.17;13.40;;;-3.80;79.90;;;;;;5015520;28;20209;-75
2023/02/08 05:18:21;;;;;;;31.60;14.30;;;-3.80;80.00;;;;;;5011848;28;20746;-75
2023/02/08 05:20:58;;;;;;;28.73;13.37;;;-3.80;80.20;;;;;;5020401;28;20919;-74
2023/02/08 05:23:25;;;;;;;28.63;13.15;;;-3.80;80.20;;;;;;5023631;28;20231;-74
2023/02/08 05:25:51;;;;;;;31.58;14.23;;;-3.80;80.20;;;;;;5016776;28;20276;-75
2023/02/08 05:28:16;;;;;;;25.97;13.97;;;-3.80;80.30;;;;;;5019268;28;20240;-76
2023/02/08 05:30:42;;;;;;;28.50;13.10;;;-3.80;80.50;;;;;;5026470;28;20173;-73
2023/02/08 05:33:08;;;;;;;27.20;13.07;;;-3.80;80.50;;;;;;5017803;28;20208;-75
2023/02/08 05:35:33;;;;;;;27.83;12.23;;;-3.80;80.30;;;;;;5017143;28;20507;-75
2023/02/08 05:37:59;;;;;;;26.43;12.73;;;-3.80;80.30;;;;;;5013522;28;20658;-75
2023/02/08 05:40:25;;;;;;;28.20;12.70;;;-3.80;80.30;;;;;;5011844;28;20190;-74
2023/02/08 05:42:50;;;;;;;27.10;14.27;;;-3.80;80.30;;;;;;5016412;28;20559;-74
2023/02/08 05:45:16;;;;;;;29.90;14.63;;;-3.80;80.50;;;;;;5017889;28;20189;-73
2023/02/08 05:47:41;;;;;;;31.20;14.17;;;-3.90;80.60;;;;;;5019664;28;20186;-74
2023/02/08 05:50:07;;;;;;;26.83;13.00;;;-3.80;80.80;;;;;;5019736;28;20185;-75
2023/02/08 05:52:33;;;;;;;27.90;14.13;;;-3.90;80.80;;;;;;5016069;28;20743;-74
2023/02/08 05:54:58;;;;;;;33.70;14.67;;;-3.90;80.90;;;;;;5015043;28;20421;-75
2023/02/08 05:57:24;;;;;;;27.73;12.27;;;-3.80;81.10;;;;;;5013728;28;20695;-74
2023/02/08 05:59:50;;;;;;;32.97;13.50;;;-3.80;80.90;;;;;;5024833;28;20184;-73
2023/02/08 06:02:15;;;;;;;27.60;13.63;;;-3.80;80.80;;;;;;5014788;28;20213;-74
2023/02/08 06:04:41;;;;;;;25.37;13.43;;;-3.80;80.80;;;;;;5020346;28;20270;-75
2023/02/08 06:07:07;;;;;;;25.10;12.50;;;-3.80;80.80;;;;;;5024985;28;20217;-75
2023/02/08 06:09:32;;;;;;;24.73;12.67;;;-3.80;80.60;;;;;;5017902;28;20210;-75
2023/02/08 06:11:58;;;;;;;27.13;14.10;;;-3.80;80.50;;;;;;5016233;28;20209;-74
2023/02/08 06:14:23;;;;;;;25.03;12.20;;;-3.80;80.50;;;;;;5022915;28;20243;-75
2023/02/08 06:16:49;;;;;;;26.80;13.70;;;-3.80;80.50;;;;;;5017843;28;20185;-76
2023/02/08 06:19:15;;;;;;;30.17;12.70;;;-3.90;80.60;;;;;;5020559;28;20722;-74
2023/02/08 06:21:41;;;;;;;26.00;13.03;;;-3.90;80.80;;;;;;5023793;28;20268;-74
2023/02/08 06:24:07;;;;;;;34.73;14.10;;;-3.80;80.60;;;;;;5020342;28;20458;-74
2023/02/08 06:26:33;;;;;;;32.30;12.60;;;-3.90;80.50;;;;;;5028147;28;20443;-77
2023/02/08 06:28:59;;;;;;;29.57;13.43;;;-3.90;80.50;;;;;;5018561;28;20499;-73
2023/02/08 06:31:24;;;;;;;30.17;14.70;;;-3.90;80.50;;;;;;5016614;28;20463;-74
2023/02/08 06:33:50;;;;;;;27.53;12.90;;;-3.90;80.60;;;;;;5009735;28;20499;-76
2023/02/08 06:36:16;;;;;;;30.63;13.70;;;-3.90;80.30;;;;;;5017724;28;20420;-76
2023/02/08 06:38:42;;;;;;;27.50;12.93;;;-3.90;80.30;;;;;;5013963;28;20607;-75
2023/02/08 06:41:07;;;;;;;27.25;13.02;;;-3.90;80.30;;;;;;5017454;28;20229;-74
2023/02/08 06:43:33;;;;;;;30.70;14.10;;;-3.90;80.30;;;;;;5013854;28;20335;-76
2023/02/08 06:45:59;;;;;;;27.93;12.73;;;-3.90;80.20;;;;;;5019444;28;20186;-74
2023/02/08 06:48:24;;;;;;;33.00;13.27;;;-3.90;80.20;;;;;;5018148;28;20528;-75
2023/02/08 06:50:54;;;;;;;28.87;12.17;;;-3.90;80.00;;;;;;5017176;28;20248;-76
2023/02/08 06:53:20;;;;;;;30.90;14.65;;;-3.90;79.90;;;;;;5014039;28;20201;-76
2023/02/08 06:55:49;;;;;;;27.75;12.40;;;-3.90;79.90;;;;;;5016750;28;20489;-76
2023/02/08 06:58:15;;;;;;;22.63;12.48;;;-3.90;79.70;;;;;;5015563;28;20586;-75
2023/02/08 07:00:40;;;;;;;27.47;12.57;;;-3.90;79.60;;;;;;5019058;28;20229;-76
2023/02/08 07:03:06;;;;;;;28.10;13.37;;;-3.80;79.30;;;;;;5012069;28;20259;-76
2023/02/08 07:05:35;;;;;;;24.95;11.77;;;-3.90;79.30;;;;;;5027495;28;20451;-76
2023/02/08 07:08:00;;;;;;;31.63;13.13;;;-3.90;79.30;;;;;;5021121;28;20181;-76
2023/02/08 07:10:26;;;;;;;33.17;13.50;;;-3.80;79.30;;;;;;5018196;28;20335;-75
2023/02/08 07:12:51;;;;;;;25.37;13.17;;;-3.80;79.20;;;;;;5015056;28;20229;-75
2023/02/08 07:15:17;;;;;;;30.97;15.27;;;-3.80;79.20;;;;;;5014906;28;20261;-76
2023/02/08 07:17:42;;;;;;;30.97;16.07;;;-3.80;79.20;;;;;;5012368;28;20277;-75
2023/02/08 07:20:10;;;;;;;32.53;16.40;;;-3.70;79.20;;;;;;5016086;28;20700;-75
2023/02/08 07:22:36;;;;;;;32.13;14.77;;;-3.70;78.90;;;;;;5009988;28;20231;-75
2023/02/08 07:25:03;;;;;;;31.80;14.50;;;-3.60;78.70;;;;;;5015759;28;20228;-74
2023/02/08 07:27:28;;;;;;;31.92;14.07;;;-3.60;78.60;;;;;;5018050;28;20181;-75
2023/02/08 07:29:54;;;;;;;41.93;17.07;;;-3.60;78.40;;;;;;5025048;28;20182;-75
2023/02/08 07:32:20;;;;;;;29.93;14.30;;;-3.50;78.10;;;;;;5011936;28;20230;-76
2023/02/08 07:34:45;;;;;;;26.97;13.20;;;-3.50;77.70;;;;;;5025348;28;20554;-76
2023/02/08 07:37:11;;;;;;;28.47;13.87;;;-3.50;77.60;;;;;;5023738;28;20189;-75
2023/02/08 07:39:37;;;;;;;31.00;14.83;;;-3.50;77.60;;;;;;5014744;28;20389;-75
2023/02/08 07:42:05;;;;;;;31.97;14.67;;;-3.50;77.40;;;;;;5019201;28;20460;-75
2023/02/08 07:44:31;;;;;;;32.78;13.98;;;-3.40;77.40;;;;;;5026203;28;20181;-74
2023/02/08 07:46:56;;;;;;;36.80;18.00;;;-3.40;77.30;;;;;;5022050;28;20188;-74
2023/02/08 07:49:22;;;;;;;27.57;13.33;;;-3.30;77.10;;;;;;5019083;28;20229;-75
2023/02/08 07:51:48;;;;;;;36.83;15.17;;;-3.40;77.00;;;;;;5026226;28;20226;-73
2023/02/08 07:54:13;;;;;;;31.83;15.17;;;-3.30;77.00;;;;;;5038168;28;20243;-75
2023/02/08 07:56:39;;;;;;;33.23;16.33;;;-3.20;76.80;;;;;;5045002;28;20173;-75
2023/02/08 07:59:04;;;;;;;32.70;16.73;;;-3.20;76.80;;;;;;5030393;28;20611;-75
2023/02/08 08:01:30;;;;;;;30.27;16.87;;;-3.10;76.80;;;;;;5018106;28;20209;-74
2023/02/08 08:03:56;;;;;;;39.43;16.37;;;-3.10;76.50;;;;;;5013275;28;20193;-76
2023/02/08 08:06:22;;;;;;;36.10;17.40;;;-3.10;76.20;;;;;;5016137;28;20194;-75
2023/02/08 08:08:48;;;;;;;29.98;15.40;;;-3.00;76.40;;;;;;5026607;28;20248;-75
2023/02/08 08:11:15;;;;;;;36.53;17.27;;;-2.90;76.40;;;;;;5018800;28;20210;-75
2023/02/08 08:13:40;;;;;;;31.33;15.30;;;-2.90;76.10;;;;;;5011190;28;20269;-75
2023/02/08 08:16:06;;;;;;;35.30;17.53;;;-2.80;75.90;;;;;;5014883;28;20285;-74
2023/02/08 08:18:32;;;;;;;30.70;13.90;;;-2.80;75.80;;;;;;5013945;28;20182;-73
2023/02/08 08:20:57;;;;;;;34.37;15.77;;;-2.80;75.80;;;;;;5010416;28;20563;-76
2023/02/08 08:23:23;;;;;;;33.53;14.33;;;-2.70;75.90;;;;;;5008597;28;20293;-75
2023/02/08 08:25:49;;;;;;;30.03;14.40;;;-2.70;75.70;;;;;;5011734;28;20661;-75
2023/02/08 08:28:15;;;;;;;27.70;14.27;;;-2.60;75.40;;;;;;5017581;28;20601;-76
2023/02/08 08:30:44;;;;;;;30.30;13.63;;;-2.60;75.50;;;;;;5018494;28;20440;-75
2023/02/08 08:33:12;;;;;;;29.70;14.40;;;-2.60;75.40;;;;;;5017972;28;20201;-74
2023/02/08 08:35:38;;;;;;;24.15;12.68;;;-2.50;75.20;;;;;;5016078;28;20182;-75
2023/02/08 08:38:03;;;;;;;26.57;14.03;;;-2.30;74.90;;;;;;5019631;28;20637;-75
2023/02/08 08:40:29;;;;;;;27.53;13.13;;;-2.30;74.60;;;;;;5011520;28;20182;-75
2023/02/08 08:42:56;;;;;;;27.20;13.53;;;-2.20;74.20;;;;;;5019784;28;20246;-74
2023/02/08 08:45:21;;;;;;;26.80;12.63;;;-2.10;74.00;;;;;;5022292;28;20432;-76
2023/02/08 08:47:47;;;;;;;31.07;13.90;;;-2.00;73.20;;;;;;5022866;28;20616;-74
2023/02/08 08:50:12;;;;;;;27.93;12.93;;;-1.90;73.60;;;;;;5015148;28;20196;-76
2023/02/08 08:52:39;;;;;;;28.27;13.20;;;-1.80;73.00;;;;;;5011046;28;20208;-76
2023/02/08 08:55:05;;;;;;;32.13;13.85;;;-1.80;72.60;;;;;;5032614;28;20166;-76
2023/02/08 08:57:31;;;;;;;26.48;13.13;;;-1.70;71.80;;;;;;5013647;28;20182;-75
2023/02/08 08:59:56;;;;;;;27.33;13.83;;;-1.60;70.80;;;;;;5012218;28;20182;-75
2023/02/08 09:02:22;;;;;;;28.40;12.80;;;-1.50;69.90;;;;;;5010872;28;20215;-76
2023/02/08 09:04:48;;;;;;;26.70;11.77;;;-1.50;68.60;;;;;;5021268;28;20217;-74
2023/02/08 09:07:13;;;;;;;26.17;11.90;;;-1.40;68.30;;;;;;5027444;28;20204;-75
2023/02/08 09:09:40;;;;;;;28.50;12.90;;;-1.50;67.70;;;;;;5034223;28;20186;-76
2023/02/08 09:12:06;;;;;;;29.90;12.35;;;-1.40;67.90;;;;;;5012870;28;20265;-75
2023/02/08 09:14:31;;;;;;;31.93;13.70;;;-1.40;67.90;;;;;;5012889;28;20322;-75
2023/02/08 09:16:57;;;;;;;28.97;12.30;;;-1.30;67.50;;;;;;5021266;28;20181;-76
2023/02/08 09:19:22;;;;;;;28.50;12.63;;;-1.30;67.00;;;;;;5019412;28;20177;-75
2023/02/08 09:21:48;;;;;;;27.00;12.63;;;-1.30;66.90;;;;;;5012330;28;20854;-75
2023/02/08 09:24:14;;;;;;;30.67;13.00;;;-1.20;66.90;;;;;;5017989;28;20185;-76
2023/02/08 09:26:40;;;;;;;22.10;12.68;;;-1.20;67.00;;;;;;5013419;28;20177;-75
2023/02/08 09:29:06;;;;;;;25.40;14.20;;;-1.10;66.90;;;;;;5010666;28;20189;-74
2023/02/08 09:31:36;;;;;;;26.70;13.20;;;-1.10;66.60;;;;;;5016671;28;20206;-75
2023/02/08 09:34:03;;;;;;;32.35;13.93;;;-1.00;66.30;;;;;;5014678;28;20612;-76
2023/02/08 09:36:32;;;;;;;29.42;13.05;;;-0.90;66.30;;;;;;5009950;28;20181;-75
2023/02/08 09:39:00;;;;;;;25.95;13.68;;;-0.90;65.80;;;;;;5015987;28;20611;-75
2023/02/08 09:41:47;;;;;;;32.30;14.07;;;-0.80;66.40;;;;;;5010474;28;20836;-73
2023/02/08 09:44:47;;;;;;;32.60;14.60;;;-0.70;66.90;;;;;;5009832;28;20609;-74
2023/02/08 09:47:33;;;;;;;30.63;13.23;;;-0.60;65.60;;;;;;5014831;28;20188;-74
2023/02/08 09:50:08;;;;;;;24.25;13.05;;;-0.40;66.40;;;;;;5012341;28;20192;-74
2023/02/08 09:52:43;;;;;;;28.02;12.52;;;-0.30;65.40;;;;;;5012022;28;20320;-74
2023/02/08 09:55:33;;;;;;;26.20;13.57;;;-0.20;63.40;;;;;;5011458;28;20182;-75
2023/02/08 09:58:02;;;;;;;25.63;12.75;;;-0.20;63.50;;;;;;5020550;28;20256;-75
2023/02/08 10:00:39;;;;;;;26.05;12.75;;;0.00;63.70;;;;;;5018104;28;20200;-73
2023/02/08 10:03:13;;;;;;;26.50;12.65;;;0.10;63.10;;;;;;5016284;28;20583;-74
2023/02/08 10:05:38;;;;;;;27.92;12.13;;;0.10;61.60;;;;;;5008072;28;20197;-74
2023/02/08 10:08:08;;;;;;;27.20;12.57;;;0.10;61.20;;;;;;5022506;28;20181;-74
2023/02/08 10:10:53;;;;;;;32.60;13.65;;;0.00;61.60;;;;;;5022781;28;20186;-74
2023/02/08 10:13:19;;;;;;;32.15;13.63;;;0.20;62.50;;;;;;5014852;28;20272;-73
2023/02/08 10:16:08;;;;;;;30.17;14.23;;;0.40;61.70;;;;;;5021908;28;20264;-73
2023/02/08 10:18:37;;;;;;;27.55;13.38;;;0.30;60.00;;;;;;5024187;28;20312;-75
2023/02/08 10:21:14;;;;;;;28.33;12.60;;;0.30;60.70;;;;;;5019743;28;20174;-76
2023/02/08 10:23:58;;;;;;;27.10;13.10;;;0.50;61.20;;;;;;5008226;28;20677;-76
2023/02/08 10:26:38;;;;;;;24.77;12.88;;;0.60;60.00;;;;;;5014157;28;20185;-76
2023/02/08 10:29:10;;;;;;;25.75;11.80;;;0.60;59.90;;;;;;5017612;28;20210;-76
2023/02/08 10:31:54;;;;;;;30.60;12.48;;;0.80;60.10;;;;;;5020029;28;20217;-76
2023/02/08 10:34:58;;;;;;;31.95;13.82;;;0.90;59.10;;;;;;5016341;28;20189;-77
2023/02/08 10:37:33;;;;;;;23.70;11.75;;;0.90;58.80;;;;;;4995194;28;20200;-75
2023/02/08 10:40:17;;;;;;;29.00;13.15;;;0.90;58.70;;;;;;4995303;28;20618;-77
2023/02/08 10:42:50;;;;;;;28.95;14.18;;;1.10;58.70;;;;;;4996716;28;20217;-75
2023/02/08 10:45:26;;;;;;;26.85;13.48;;;1.20;57.80;;;;;;4991364;28;20232;-75
2023/02/08 10:48:01;;;;;;;21.90;12.65;;;1.40;56.90;;;;;;4994870;28;20708;-74
2023/02/08 10:50:37;;;;;;;30.38;13.27;;;1.80;56.50;;;;;;4995365;28;20453;-74
2023/02/08 10:53:03;;;;;;;23.80;12.80;;;2.30;55.30;;;;;;4998148;28;20214;-74
2023/02/08 10:55:31;;;;;;;19.97;11.20;;;2.90;53.70;;;;;;4998819;28;20517;-74
2023/02/08 10:58:00;;;;;;;25.07;12.03;;;3.20;51.40;;;;;;4992219;28;20489;-74
2023/02/08 11:00:29;;;;;;;25.80;13.17;;;3.50;51.00;;;;;;4994319;28;20465;-75
2023/02/08 11:02:59;;;;;;;26.90;11.90;;;3.70;50.50;;;;;;4991724;28;20980;-74
2023/02/08 11:05:25;;;;;;;20.63;11.30;;;4.00;50.10;;;;;;4994572;28;20415;-76
2023/02/08 11:08:06;;;;;;;30.80;12.40;;;4.50;49.10;;;;;;4996327;28;20524;-76
2023/02/08 11:10:32;;;;;;;25.53;11.90;;;4.50;47.40;;;;;;4997079;28;20206;-76
2023/02/08 11:12:59;;;;;;;26.07;12.20;;;4.40;47.40;;;;;;4993359;28;20480;-74
2023/02/08 11:15:52;;;;;;;24.17;10.37;;;4.10;47.70;;;;;;5024042;28;21226;-78
2023/02/08 11:18:50;;;;;;;19.73;9.63;;;4.10;47.90;;;;;;5016513;28;20552;-76
2023/02/08 11:21:36;;;;;;;23.13;11.03;;;4.40;48.10;;;;;;5017800;28;20424;-76
2023/02/08 11:24:14;;;;;;;19.13;11.60;;;4.50;46.50;;;;;;5011707;28;20928;-76
2023/02/08 11:26:41;;;;;;;21.80;10.20;;;4.50;47.10;;;;;;5015354;28;20431;-75
2023/02/08 11:29:25;;;;;;;24.23;11.10;;;4.60;47.10;;;;;;5008294;28;20428;-77
2023/02/08 11:31:53;;;;;;;26.20;11.03;;;4.90;46.10;;;;;;5012658;28;20480;-77
2023/02/08 11:34:29;;;;;;;22.10;10.97;;;5.00;45.70;;;;;;5013044;28;21029;-76
2023/02/08 11:36:56;;;;;;;22.73;11.10;;;5.10;45.70;;;;;;5016053;28;20557;-76
2023/02/08 11:39:27;;;;;;;23.30;10.40;;;5.20;45.40;;;;;;5014917;28;20787;-77
2023/02/08 11:41:58;;;;;;;24.23;9.83;;;5.20;45.10;;;;;;5016638;28;20457;-77
2023/02/08 11:44:32;;;;;;;22.57;10.80;;;5.30;45.00;;;;;;5021313;28;20485;-76
2023/02/08 11:47:04;;;;;;;26.27;11.03;;;5.30;45.10;;;;;;5020855;28;20416;-76
2023/02/08 11:49:39;;;;;;;22.03;11.07;;;5.10;45.40;;;;;;5017368;28;20435;-77
2023/02/08 11:52:17;;;;;;;20.33;10.33;;;5.20;45.90;;;;;;5016505;28;20491;-76
2023/02/08 11:54:43;;;;;;;20.60;10.63;;;5.60;45.70;;;;;;5028700;28;20785;-75
2023/02/08 11:57:18;;;;;;;26.17;11.00;;;6.00;44.50;;;;;;5026149;28;20425;-75
2023/02/08 11:59:48;;;;;;;23.47;11.17;;;6.20;43.70;;;;;;5013988;28;20199;-77
2023/02/08 12:02:36;;;;;;;21.27;10.30;;;6.30;42.70;;;;;;5010509;28;20469;-76
2023/02/08 12:05:03;;;;;;;19.23;9.70;;;6.30;42.40;;;;;;5013001;28;20421;-75
2023/02/08 12:07:46;;;;;;;23.30;10.00;;;6.20;43.00;;;;;;5019051;28;20425;-76
2023/02/08 12:10:45;;;;;;;18.57;8.70;;;5.80;43.00;;;;;;5020531;28;20427;-76
2023/02/08 12:13:26;;;;;;;16.57;8.60;;;5.40;44.20;;;;;;5010979;28;20472;-76
2023/02/08 12:16:18;;;;;;;16.40;8.03;;;5.30;44.90;;;;;;5012676;28;20420;-76
2023/02/08 12:19:03;;;;;;;16.63;8.63;;;5.20;44.70;;;;;;5012679;28;20423;-76
2023/02/08 12:21:46;;;;;;;23.10;9.13;;;5.00;45.70;;;;;;5017908;28;20514;-76
2023/02/08 12:24:38;;;;;;;20.23;9.53;;;5.10;45.30;;;;;;5013584;28;20491;-75
2023/02/08 12:27:35;;;;;;;17.90;8.23;;;5.30;45.10;;;;;;5014067;28;20417;-76
2023/02/08 12:30:31;;;;;;;17.77;8.60;;;5.60;44.30;;;;;;5011050;28;21164;-74
2023/02/08 12:33:06;;;;;;;19.17;8.60;;;5.60;43.80;;;;;;5015833;28;20525;-76
2023/02/08 12:35:52;;;;;;;19.40;8.70;;;5.60;44.30;;;;;;5012635;28;20432;-76
2023/02/08 12:41:49;;;;;;;15.37;8.27;;;5.70;43.90;;;;;;5009674;28;20942;-76
2023/02/08 12:44:52;;;;;;;17.20;8.30;;;5.70;44.60;;;;;;5025621;28;20488;-76
2023/02/08 12:47:33;;;;;;;16.07;8.40;;;5.90;43.50;;;;;;5012439;28;20424;-76
2023/02/08 12:50:18;;;;;;;18.83;8.70;;;6.30;44.10;;;;;;5017084;28;20425;-76
2023/02/08 12:52:51;;;;;;;17.57;8.00;;;6.80;42.30;;;;;;5016835;28;20490;-76
2023/02/08 12:55:24;;;;;;;17.90;8.07;;;7.20;41.80;;;;;;5040100;28;20443;-77
2023/02/08 12:57:53;;;;;;;18.13;8.40;;;7.40;40.60;;;;;;5022003;28;20432;-77